Time;durP1;ratioP1;P1;durP2;ratioP2;P2;SDS_P1;SDS_P2;PMS_P1;PMS_P2;Temp;Humidity;BMP_temperature;BMP_pressure;BME280_temperature;BME280_humidity;BME280_pressure;Samples;Min_cycle;Max_cycle;Signal;HPM_P1;HPM_P2
2022/06/16 00:02:19;;;;;;;0.73;0.43;;;13.60;54.40;;;;;;5012481;28;20200;-49
2022/06/16 00:04:49;;;;;;;0.50;0.30;;;13.60;54.30;;;;;;5028856;28;20196;-49
2022/06/16 00:07:20;;;;;;;0.28;0.28;;;13.60;54.30;;;;;;5019605;28;20676;-49
2022/06/16 00:09:51;;;;;;;0.45;0.30;;;13.70;54.40;;;;;;5012416;28;20228;-49
2022/06/16 00:12:22;;;;;;;0.30;0.30;;;13.70;54.40;;;;;;5011395;28;20203;-51
2022/06/16 00:14:54;;;;;;;0.47;0.32;;;13.70;54.40;;;;;;5012256;28;20669;-48
2022/06/16 00:17:25;;;;;;;0.22;0.22;;;13.70;54.30;;;;;;5012239;28;20204;-49
2022/06/16 00:19:56;;;;;;;0.85;0.30;;;13.70;54.30;;;;;;5025183;28;20656;-51
2022/06/16 00:22:26;;;;;;;0.28;0.28;;;13.70;54.30;;;;;;5031527;28;20200;-49
2022/06/16 00:24:57;;;;;;;0.30;0.30;;;13.80;54.30;;;;;;5015873;28;20680;-49
2022/06/16 00:27:28;;;;;;;0.40;0.30;;;13.80;54.20;;;;;;5014126;28;20193;-50
2022/06/16 00:30:01;;;;;;;0.38;0.20;;;13.80;54.20;;;;;;5012180;28;20720;-49
2022/06/16 00:32:32;;;;;;;0.30;0.30;;;13.80;54.10;;;;;;5010703;28;20197;-49
2022/06/16 00:35:03;;;;;;;0.40;0.30;;;13.80;54.10;;;;;;5012068;28;20764;-49
2022/06/16 00:37:33;;;;;;;0.30;0.20;;;13.80;54.10;;;;;;5011373;28;20211;-49
2022/06/16 00:40:04;;;;;;;0.35;0.30;;;13.80;54.00;;;;;;5011488;28;20197;-49
2022/06/16 00:42:35;;;;;;;0.70;0.30;;;13.90;54.10;;;;;;5011195;28;20682;-51
2022/06/16 00:45:48;;;;;;;0.20;0.20;;;13.90;54.10;;;;;;5010848;28;20205;-49
2022/06/16 00:48:22;;;;;;;0.40;0.30;;;13.90;54.20;;;;;;5012281;28;20220;-49
2022/06/16 00:50:56;;;;;;;0.32;0.28;;;13.90;54.10;;;;;;5030421;28;20233;-49
2022/06/16 00:53:29;;;;;;;0.40;0.25;;;13.90;54.10;;;;;;5031689;28;20561;-50
2022/06/16 00:56:01;;;;;;;0.30;0.30;;;14.00;54.20;;;;;;5030616;28;20204;-51
2022/06/16 00:58:33;;;;;;;0.57;0.40;;;14.00;54.10;;;;;;5032152;28;20212;-49
2022/06/16 01:01:07;;;;;;;0.30;0.30;;;14.00;54.10;;;;;;5030410;28;20203;-50
2022/06/16 01:06:26;;;;;;;1.00;0.30;;;14.10;54.10;;;;;;5012461;28;20219;-50
2022/06/16 01:08:59;;;;;;;1.35;0.50;;;14.10;54.00;;;;;;5011454;28;20221;-48
2022/06/16 01:14:51;;;;;;;0.30;0.30;;;14.10;54.00;;;;;;5011374;28;20199;-48
2022/06/16 01:17:33;;;;;;;0.30;0.30;;;14.10;53.90;;;;;;5010700;28;20197;-50
2022/06/16 01:20:14;;;;;;;0.30;0.30;;;14.20;53.90;;;;;;5011519;28;20196;-49
2022/06/16 01:23:01;;;;;;;1.45;0.40;;;14.20;53.80;;;;;;5010945;28;20203;-55
2022/06/16 01:25:43;;;;;;;0.77;0.30;;;14.20;53.80;;;;;;5010602;28;20394;-49
2022/06/16 01:28:24;;;;;;;0.30;0.30;;;14.20;53.70;;;;;;5011067;28;20240;-53
2022/06/16 01:31:05;;;;;;;0.50;0.30;;;14.30;53.80;;;;;;5011000;28;20231;-49
2022/06/16 01:33:42;;;;;;;0.30;0.30;;;14.30;53.70;;;;;;5011162;28;20199;-54
2022/06/16 01:36:20;;;;;;;0.40;0.40;;;14.30;53.70;;;;;;5011618;28;20204;-51
2022/06/16 01:38:55;;;;;;;0.30;0.20;;;14.30;53.70;;;;;;5010593;28;20224;-50
2022/06/16 01:41:35;;;;;;;0.30;0.30;;;14.30;53.60;;;;;;5011164;28;20687;-49
2022/06/16 01:44:12;;;;;;;0.20;0.20;;;14.30;53.60;;;;;;5011214;28;20207;-50
2022/06/16 01:46:48;;;;;;;0.20;0.20;;;14.40;53.50;;;;;;5010779;28;20787;-48
2022/06/16 01:49:21;;;;;;;0.38;0.22;;;14.40;53.50;;;;;;5010586;28;20247;-49
2022/06/16 01:51:54;;;;;;;0.77;0.47;;;14.40;53.40;;;;;;5010569;28;20212;-52
2022/06/16 01:54:29;;;;;;;0.30;0.30;;;14.40;53.40;;;;;;5011119;28;20196;-51
2022/06/16 01:57:04;;;;;;;0.40;0.30;;;14.40;53.30;;;;;;5010959;28;20230;-51
2022/06/16 01:59:42;;;;;;;0.70;0.30;;;14.50;53.30;;;;;;5012029;28;20220;-50
2022/06/16 02:02:17;;;;;;;0.20;0.20;;;14.50;53.20;;;;;;5011240;28;20215;-51
2022/06/16 02:04:52;;;;;;;0.20;0.20;;;14.50;53.30;;;;;;4997209;28;20204;-51
2022/06/16 02:07:26;;;;;;;1.60;0.47;;;14.50;53.30;;;;;;5010336;28;20196;-51
2022/06/16 02:10:02;;;;;;;0.65;0.40;;;14.50;53.20;;;;;;5014725;28;20235;-53
2022/06/16 02:15:35;;;;;;;0.43;0.30;;;14.50;53.10;;;;;;5014739;28;20196;-53
2022/06/16 02:18:11;;;;;;;0.32;0.30;;;14.60;53.20;;;;;;5030401;28;20216;-55
2022/06/16 02:20:52;;;;;;;0.30;0.30;;;14.60;53.20;;;;;;5034313;28;20206;-55
2022/06/16 02:23:23;;;;;;;0.38;0.30;;;14.60;53.20;;;;;;5018416;28;20193;-50
2022/06/16 02:25:56;;;;;;;0.77;0.35;;;14.60;53.80;;;;;;5014148;28;20491;-50
2022/06/16 02:28:28;;;;;;;0.63;0.20;;;14.60;53.20;;;;;;5014390;28;20223;-52
2022/06/16 02:31:24;;;;;;;0.85;0.30;;;14.70;53.20;;;;;;5014159;28;20225;-53
2022/06/16 02:34:02;;;;;;;0.30;0.30;;;14.70;53.20;;;;;;5014651;28;20536;-51
2022/06/16 02:36:45;;;;;;;0.50;0.30;;;14.70;53.10;;;;;;5014175;28;20216;-50
2022/06/16 02:39:26;;;;;;;0.35;0.30;;;14.70;53.10;;;;;;5014555;28;20244;-50
2022/06/16 02:42:04;;;;;;;0.57;0.40;;;14.80;53.20;;;;;;5029596;28;20278;-53
2022/06/16 02:44:44;;;;;;;2.28;0.40;;;14.80;53.20;;;;;;5034458;28;20199;-51
2022/06/16 02:47:44;;;;;;;0.70;0.40;;;14.80;53.20;;;;;;5033811;28;20250;-51
2022/06/16 02:50:25;;;;;;;1.42;0.30;;;14.80;53.20;;;;;;5034031;28;20319;-53
2022/06/16 02:53:05;;;;;;;0.45;0.45;;;14.90;53.20;;;;;;5033371;28;20592;-54
2022/06/16 02:55:41;;;;;;;0.40;0.40;;;14.90;53.20;;;;;;5033981;28;20283;-54
2022/06/16 02:58:18;;;;;;;0.40;0.40;;;14.90;53.10;;;;;;5033383;28;20621;-51
2022/06/16 03:00:54;;;;;;;0.43;0.32;;;14.90;53.70;;;;;;5033220;28;20200;-51
2022/06/16 03:03:27;;;;;;;0.40;0.30;;;14.90;53.10;;;;;;5033329;28;20192;-49
2022/06/16 03:06:00;;;;;;;1.60;0.40;;;14.90;53.10;;;;;;5033541;28;20200;-53
2022/06/16 03:08:34;;;;;;;2.13;0.40;;;14.90;53.00;;;;;;5013835;28;20221;-52
2022/06/16 03:11:04;;;;;;;0.30;0.30;;;15.00;53.00;;;;;;5013617;28;20224;-49
2022/06/16 03:13:36;;;;;;;1.48;0.40;;;15.00;53.00;;;;;;5013840;28;20193;-50
2022/06/16 03:16:07;;;;;;;0.73;0.50;;;15.00;53.60;;;;;;5013316;28;20614;-52
2022/06/16 03:18:37;;;;;;;1.17;0.30;;;15.00;53.00;;;;;;5013686;28;20221;-52
2022/06/16 03:21:10;;;;;;;0.38;0.32;;;15.00;52.90;;;;;;5012023;28;20668;-50
2022/06/16 03:23:41;;;;;;;0.68;0.60;;;15.10;53.00;;;;;;5014127;28;20200;-51
2022/06/16 03:26:11;;;;;;;1.50;0.50;;;15.10;53.00;;;;;;5013262;28;20247;-51
2022/06/16 03:28:42;;;;;;;0.75;0.40;;;15.10;53.00;;;;;;5013555;28;20225;-51
2022/06/16 03:31:13;;;;;;;0.95;0.57;;;15.10;53.00;;;;;;5012861;28;20380;-52
2022/06/16 03:33:43;;;;;;;0.47;0.47;;;15.10;53.00;;;;;;5013386;28;20205;-49
2022/06/16 03:36:17;;;;;;;0.70;0.70;;;15.10;53.00;;;;;;5013310;28;20735;-51
2022/06/16 03:38:47;;;;;;;0.60;0.55;;;15.20;52.90;;;;;;5013158;28;20220;-52
2022/06/16 03:41:18;;;;;;;1.20;0.50;;;15.20;52.90;;;;;;5013032;28;20201;-54
2022/06/16 03:43:49;;;;;;;0.60;0.50;;;15.20;52.80;;;;;;5012909;28;20201;-51
2022/06/16 03:46:19;;;;;;;0.82;0.50;;;15.20;53.40;;;;;;5012888;28;20251;-52
2022/06/16 03:48:50;;;;;;;0.60;0.60;;;15.20;52.80;;;;;;5012503;28;20217;-51
2022/06/16 03:51:23;;;;;;;0.40;0.40;;;15.20;52.80;;;;;;5012747;28;20224;-55
2022/06/16 03:53:54;;;;;;;0.50;0.50;;;15.20;52.70;;;;;;5012443;28;20851;-51
2022/06/16 03:56:24;;;;;;;0.68;0.50;;;15.30;52.80;;;;;;5015309;28;20999;-50
2022/06/16 03:58:56;;;;;;;0.40;0.30;;;15.30;52.70;;;;;;5032969;28;20216;-50
2022/06/16 04:01:27;;;;;;;0.80;0.35;;;15.30;52.60;;;;;;5032624;28;20204;-54
2022/06/16 04:04:03;;;;;;;0.40;0.40;;;15.30;52.60;;;;;;5032596;28;20601;-51
2022/06/16 04:06:38;;;;;;;0.52;0.30;;;15.40;52.60;;;;;;5027076;28;20258;-51
2022/06/16 04:09:09;;;;;;;0.40;0.40;;;15.40;52.50;;;;;;5013048;28;20216;-51
2022/06/16 04:11:39;;;;;;;0.77;0.50;;;15.40;52.60;;;;;;5012580;28;20271;-52
2022/06/16 04:14:11;;;;;;;0.50;0.35;;;15.40;52.70;;;;;;5012530;28;20228;-53
2022/06/16 04:16:43;;;;;;;0.50;0.30;;;15.40;52.60;;;;;;5011994;28;20251;-51
2022/06/16 04:19:16;;;;;;;0.43;0.38;;;15.40;52.60;;;;;;5027531;28;20224;-49
2022/06/16 04:21:53;;;;;;;1.77;0.40;;;15.40;52.60;;;;;;5031587;28;20192;-50
2022/06/16 04:24:25;;;;;;;0.80;0.50;;;15.40;52.50;;;;;;5031948;28;20665;-54
2022/06/16 04:26:57;;;;;;;0.40;0.40;;;15.40;52.50;;;;;;5016760;28;20653;-50
2022/06/16 04:29:27;;;;;;;1.05;0.28;;;15.40;52.70;;;;;;5010801;28;20228;-52
2022/06/16 04:31:58;;;;;;;2.08;0.32;;;15.50;52.80;;;;;;5011311;28;20224;-50
2022/06/16 04:37:53;;;;;;;1.20;0.40;;;15.50;52.60;;;;;;5012209;28;20923;-50
2022/06/16 04:40:23;;;;;;;1.05;0.30;;;15.50;52.50;;;;;;5011278;28;20390;-49
2022/06/16 04:42:54;;;;;;;0.38;0.30;;;15.50;52.50;;;;;;5011992;28;20227;-49
2022/06/16 04:45:25;;;;;;;1.20;0.30;;;15.50;52.50;;;;;;5023240;28;20192;-50
2022/06/16 04:47:55;;;;;;;0.22;0.22;;;15.50;52.60;;;;;;5031536;28;20683;-52
2022/06/16 04:50:26;;;;;;;0.30;0.30;;;15.50;52.60;;;;;;5031505;28;20232;-49
2022/06/16 04:52:59;;;;;;;0.57;0.45;;;15.50;52.50;;;;;;5031932;28;20196;-55
2022/06/16 04:55:30;;;;;;;0.50;0.30;;;15.50;52.50;;;;;;5031883;28;20196;-49
2022/06/16 04:58:01;;;;;;;0.45;0.30;;;15.50;52.40;;;;;;5020421;28;20221;-50
2022/06/16 05:00:32;;;;;;;1.75;0.40;;;15.50;52.40;;;;;;5011636;28;20197;-53
2022/06/16 05:03:03;;;;;;;0.40;0.40;;;15.50;52.40;;;;;;5011317;28;20227;-51
2022/06/16 05:05:34;;;;;;;0.50;0.50;;;15.50;52.50;;;;;;5011771;28;20200;-51
2022/06/16 05:08:06;;;;;;;0.60;0.60;;;15.50;52.50;;;;;;5011252;28;20823;-50
2022/06/16 05:10:37;;;;;;;0.75;0.70;;;15.50;53.10;;;;;;5011461;28;20751;-50
2022/06/16 05:13:08;;;;;;;0.93;0.47;;;15.50;52.50;;;;;;5011108;28;20208;-52
2022/06/16 05:15:39;;;;;;;0.90;0.80;;;15.50;52.40;;;;;;5011701;28;20205;-51
2022/06/16 05:18:12;;;;;;;0.80;0.70;;;15.60;52.40;;;;;;5011278;28;20221;-50
2022/06/16 05:20:43;;;;;;;1.17;1.08;;;15.50;52.30;;;;;;5011364;28;20693;-50
2022/06/16 05:23:16;;;;;;;1.15;0.98;;;15.60;52.30;;;;;;5010769;28;20643;-50
2022/06/16 05:25:47;;;;;;;1.00;0.90;;;15.60;52.30;;;;;;5011503;28;20228;-49
2022/06/16 05:28:18;;;;;;;1.10;1.00;;;15.60;52.40;;;;;;5011265;28;20643;-51
2022/06/16 05:30:49;;;;;;;0.80;0.80;;;15.50;52.40;;;;;;5010893;28;20235;-50
2022/06/16 05:33:19;;;;;;;1.13;1.02;;;15.60;52.40;;;;;;5012159;28;20212;-52
2022/06/16 05:35:59;;;;;;;1.23;0.82;;;15.60;52.40;;;;;;5030553;28;20243;-50
2022/06/16 05:38:32;;;;;;;1.45;0.93;;;15.60;52.40;;;;;;4991804;28;20252;-49
2022/06/16 05:41:04;;;;;;;1.20;1.10;;;15.60;52.40;;;;;;4991602;28;20201;-49
2022/06/16 05:43:35;;;;;;;1.65;1.55;;;15.50;52.30;;;;;;4991150;28;20202;-50
2022/06/16 05:46:06;;;;;;;1.30;1.20;;;15.50;52.30;;;;;;4991297;28;20201;-52
2022/06/16 05:48:37;;;;;;;1.65;1.55;;;15.50;52.30;;;;;;4991704;28;20213;-54
2022/06/16 05:51:10;;;;;;;1.63;1.52;;;15.50;52.30;;;;;;4991289;28;20240;-50
2022/06/16 05:53:43;;;;;;;1.98;1.77;;;15.50;52.20;;;;;;4991794;28;20198;-51
2022/06/16 05:56:15;;;;;;;1.52;1.42;;;15.50;52.20;;;;;;4991245;28;20202;-50
2022/06/16 05:58:46;;;;;;;1.70;1.60;;;15.50;52.20;;;;;;5009309;28;20218;-49
2022/06/16 06:01:17;;;;;;;1.60;1.50;;;15.50;52.20;;;;;;5030283;28;20283;-53
2022/06/16 06:03:48;;;;;;;2.15;1.90;;;15.50;52.10;;;;;;5029759;28;20207;-54
2022/06/16 06:06:19;;;;;;;1.73;1.60;;;15.50;52.10;;;;;;5027384;28;20664;-54
2022/06/16 06:17:35;;;;;;;1.20;1.10;;;15.60;53.70;;;;;;4970743;28;20202;-57
2022/06/16 06:20:05;;;;;;;1.67;1.58;;;15.60;53.50;;;;;;4969194;28;20745;-51
2022/06/16 06:22:36;;;;;;;1.27;1.17;;;15.60;53.40;;;;;;4990598;28;20212;-52
2022/06/16 06:25:09;;;;;;;1.20;1.10;;;15.60;53.40;;;;;;5004698;28;20200;-51
2022/06/16 06:27:42;;;;;;;1.45;1.35;;;15.60;53.40;;;;;;5007583;28;20201;-55
2022/06/16 06:30:17;;;;;;;1.55;1.45;;;15.60;53.40;;;;;;5010687;28;20205;-51
2022/06/16 06:32:48;;;;;;;1.20;1.10;;;15.50;53.30;;;;;;5010875;28;20620;-52
2022/06/16 06:35:20;;;;;;;1.48;1.25;;;15.60;53.30;;;;;;5012977;28;20193;-60
2022/06/16 06:37:51;;;;;;;1.67;1.17;;;15.60;53.30;;;;;;5010474;28;20232;-52
2022/06/16 06:40:26;;;;;;;1.50;1.17;;;15.50;53.30;;;;;;5010527;28;20197;-53
2022/06/16 06:42:57;;;;;;;1.58;1.48;;;15.60;53.30;;;;;;5010535;28;20192;-54
2022/06/16 06:45:28;;;;;;;1.50;1.40;;;15.60;53.30;;;;;;5010677;28;20201;-53
2022/06/16 06:47:59;;;;;;;1.38;1.23;;;15.60;53.30;;;;;;5009930;28;20224;-54
2022/06/16 06:50:31;;;;;;;1.38;1.27;;;15.50;53.30;;;;;;5009899;28;20201;-52
2022/06/16 06:53:03;;;;;;;1.48;1.30;;;15.50;53.30;;;;;;5009786;28;20203;-51
2022/06/16 06:55:36;;;;;;;1.50;1.17;;;15.50;53.30;;;;;;5012399;28;20201;-53
2022/06/16 06:58:08;;;;;;;2.42;1.30;;;15.50;53.30;;;;;;5017112;28;20216;-51
2022/06/16 07:00:39;;;;;;;1.10;1.02;;;15.50;53.30;;;;;;5033528;28;20605;-52
2022/06/16 07:03:19;;;;;;;1.45;1.30;;;15.50;53.30;;;;;;5017911;28;20192;-56
2022/06/16 07:05:49;;;;;;;1.30;1.20;;;15.50;53.40;;;;;;5013066;28;20193;-51
2022/06/16 07:08:20;;;;;;;1.23;1.10;;;15.50;53.30;;;;;;5013488;28;20221;-55
2022/06/16 07:10:53;;;;;;;1.45;1.30;;;15.60;53.40;;;;;;5013657;28;20803;-50
2022/06/16 07:13:24;;;;;;;1.10;1.00;;;15.50;53.40;;;;;;5014029;28;20201;-57
2022/06/16 07:15:55;;;;;;;1.15;1.00;;;15.50;53.50;;;;;;5013631;28;20197;-53
2022/06/16 07:18:38;;;;;;;1.40;1.20;;;15.50;53.50;;;;;;5012761;28;20225;-58
2022/06/16 07:21:09;;;;;;;1.13;1.00;;;15.50;53.50;;;;;;5007848;28;20673;-53
2022/06/16 07:23:42;;;;;;;1.40;1.30;;;15.50;53.50;;;;;;5008043;28;20209;-63
2022/06/16 07:26:15;;;;;;;1.25;1.15;;;15.50;53.50;;;;;;5013676;28;20193;-51
2022/06/16 07:28:49;;;;;;;0.80;0.80;;;15.50;53.50;;;;;;5013529;28;20684;-53
2022/06/16 07:31:21;;;;;;;1.35;1.13;;;15.50;53.50;;;;;;5013293;28;20223;-51
2022/06/16 07:33:57;;;;;;;1.40;1.30;;;15.50;53.60;;;;;;5012674;28;20197;-54
2022/06/16 07:36:28;;;;;;;1.95;1.10;;;15.50;53.60;;;;;;5013348;28;20210;-56
2022/06/16 07:39:02;;;;;;;1.38;1.27;;;15.50;53.60;;;;;;5012963;28;20224;-54
2022/06/16 07:41:34;;;;;;;1.33;1.10;;;15.50;53.70;;;;;;5012847;28;20565;-52
2022/06/16 07:44:06;;;;;;;1.20;1.10;;;15.50;53.70;;;;;;5012958;28;20244;-54
2022/06/16 07:46:37;;;;;;;1.20;1.10;;;15.50;53.70;;;;;;5012879;28;20653;-54
2022/06/16 07:49:08;;;;;;;1.10;1.00;;;15.50;53.70;;;;;;5012475;28;20232;-51
2022/06/16 07:51:40;;;;;;;1.08;1.02;;;15.50;53.70;;;;;;5013266;28;20227;-56
2022/06/16 07:54:11;;;;;;;1.33;1.23;;;15.50;53.70;;;;;;5013489;28;20279;-54
2022/06/16 07:56:43;;;;;;;1.17;1.00;;;15.50;53.80;;;;;;5013161;28;20212;-55
2022/06/16 07:59:22;;;;;;;1.52;1.23;;;15.50;53.80;;;;;;5012414;28;20231;-53
2022/06/16 08:01:54;;;;;;;1.15;1.05;;;15.50;53.80;;;;;;5012439;28;20207;-54
2022/06/16 08:04:26;;;;;;;1.23;1.13;;;15.50;53.80;;;;;;5012075;28;20286;-54
2022/06/16 08:07:00;;;;;;;1.05;0.90;;;15.50;53.80;;;;;;5011619;28;20205;-55
2022/06/16 08:09:33;;;;;;;1.25;1.15;;;15.50;53.80;;;;;;5028820;28;20766;-57
2022/06/16 08:12:10;;;;;;;1.23;1.13;;;15.50;53.80;;;;;;5031898;28;20224;-56
2022/06/16 08:14:47;;;;;;;1.10;1.00;;;15.50;53.90;;;;;;5019888;28;20246;-55
2022/06/16 08:17:26;;;;;;;1.27;1.10;;;15.50;53.90;;;;;;5012207;28;20295;-54
2022/06/16 08:19:57;;;;;;;1.02;1.00;;;15.50;53.90;;;;;;5011188;28;20474;-51
2022/06/16 08:22:33;;;;;;;1.05;0.90;;;15.50;53.90;;;;;;5013392;28;20550;-55
2022/06/16 08:25:04;;;;;;;1.23;0.90;;;15.50;53.90;;;;;;5012350;28;20219;-55
2022/06/16 08:27:42;;;;;;;1.10;1.00;;;15.50;53.90;;;;;;5011552;28;20239;-51
2022/06/16 08:30:21;;;;;;;1.38;1.15;;;15.50;54.00;;;;;;5012892;28;20723;-54
2022/06/16 08:32:56;;;;;;;1.02;0.95;;;15.50;53.90;;;;;;5012199;28;20224;-52
2022/06/16 08:35:32;;;;;;;1.02;0.98;;;15.50;54.00;;;;;;5012578;28;20196;-50
2022/06/16 08:38:09;;;;;;;1.10;1.00;;;15.50;53.90;;;;;;5012175;28;20223;-55
2022/06/16 08:40:45;;;;;;;2.03;1.00;;;15.50;54.00;;;;;;5012278;28;20287;-53
2022/06/16 08:43:27;;;;;;;1.30;1.20;;;15.50;54.00;;;;;;5011874;28;20200;-51
2022/06/16 08:46:00;;;;;;;0.95;0.90;;;15.50;54.00;;;;;;5014737;28;20648;-57
2022/06/16 08:48:38;;;;;;;0.85;0.80;;;15.50;54.00;;;;;;5011956;28;20702;-58
2022/06/16 08:51:13;;;;;;;1.50;1.25;;;15.50;54.00;;;;;;5012073;28;20200;-53
2022/06/16 08:54:02;;;;;;;1.05;0.90;;;15.50;55.20;;;;;;5001354;28;20203;-52
2022/06/16 08:56:41;;;;;;;1.52;0.80;;;15.60;56.20;;;;;;5012603;28;20221;-53
2022/06/16 08:59:20;;;;;;;1.35;0.90;;;15.60;56.60;;;;;;5017688;28;20220;-53
2022/06/16 09:01:57;;;;;;;1.25;0.90;;;15.60;56.80;;;;;;4992082;28;20596;-51
2022/06/16 09:04:33;;;;;;;1.02;0.93;;;15.70;57.00;;;;;;5006129;28;20202;-49
2022/06/16 09:07:14;;;;;;;1.20;1.02;;;15.70;57.00;;;;;;5021693;28;20216;-51
2022/06/16 09:13:13;;;;;;;1.10;1.00;;;15.80;56.90;;;;;;5031391;28;20231;-50
2022/06/16 09:15:53;;;;;;;1.95;1.17;;;15.80;56.80;;;;;;5030826;28;20215;-48
2022/06/16 09:18:55;;;;;;;1.48;0.90;;;15.80;56.60;;;;;;5031089;28;20232;-50
2022/06/16 09:21:31;;;;;;;1.25;0.98;;;15.90;56.60;;;;;;5038592;28;20655;-50
2022/06/16 09:24:20;;;;;;;2.10;0.90;;;15.90;56.40;;;;;;5050559;28;20210;-50
2022/06/16 09:27:04;;;;;;;1.20;1.10;;;15.90;56.40;;;;;;5070878;28;21111;-51
2022/06/16 09:29:41;;;;;;;1.40;0.90;;;16.00;56.40;;;;;;5050481;28;20215;-51
2022/06/16 09:32:21;;;;;;;1.58;1.10;;;16.00;56.20;;;;;;5050998;28;20223;-58
2022/06/16 09:34:56;;;;;;;1.60;1.20;;;16.00;56.10;;;;;;5050314;28;20302;-51
2022/06/16 09:37:31;;;;;;;1.52;1.20;;;16.00;56.10;;;;;;5038400;28;20203;-51
2022/06/16 09:40:07;;;;;;;1.15;1.05;;;16.00;55.90;;;;;;5030023;28;20238;-50
2022/06/16 09:42:42;;;;;;;1.73;1.55;;;16.00;55.90;;;;;;5030269;28;20230;-53
2022/06/16 09:45:29;;;;;;;1.48;1.38;;;16.10;55.80;;;;;;5030154;28;20199;-52
2022/06/16 09:48:09;;;;;;;1.55;1.30;;;16.10;55.80;;;;;;5030582;28;20270;-50
2022/06/16 09:50:45;;;;;;;1.42;1.30;;;16.10;55.70;;;;;;5030773;28;20538;-50
2022/06/16 09:53:21;;;;;;;1.42;1.33;;;16.10;55.60;;;;;;5029910;28;20228;-52
2022/06/16 09:55:57;;;;;;;2.28;1.40;;;16.10;55.50;;;;;;5030163;28;20200;-52
2022/06/16 09:58:33;;;;;;;2.95;1.65;;;16.10;55.50;;;;;;5030301;28;20277;-53
2022/06/16 10:01:07;;;;;;;1.35;1.25;;;16.10;55.40;;;;;;5030829;28;20211;-52
2022/06/16 10:07:00;;;;;;;2.33;1.45;;;16.10;55.30;;;;;;5021681;28;20214;-50
2022/06/16 10:09:35;;;;;;;2.05;1.50;;;16.10;55.20;;;;;;5030015;28;20227;-50
2022/06/16 10:12:15;;;;;;;2.25;1.65;;;16.20;55.30;;;;;;5030503;28;20587;-54
2022/06/16 10:15:11;;;;;;;3.25;1.60;;;16.20;55.20;;;;;;5030789;28;20199;-51
2022/06/16 10:17:45;;;;;;;3.58;1.65;;;16.10;55.20;;;;;;5029924;28;20219;-52
2022/06/16 10:20:20;;;;;;;4.38;1.90;;;16.20;55.30;;;;;;5030630;28;20270;-52
2022/06/16 10:22:53;;;;;;;2.40;1.77;;;16.20;55.30;;;;;;5030303;28;20291;-51
2022/06/16 10:25:30;;;;;;;1.75;1.55;;;16.20;55.30;;;;;;5029948;28;20246;-52
2022/06/16 10:28:03;;;;;;;4.35;1.90;;;16.20;55.40;;;;;;5017601;28;20654;-50
2022/06/16 10:30:39;;;;;;;3.65;1.88;;;16.20;55.40;;;;;;5029382;28;20204;-51
2022/06/16 10:33:20;;;;;;;2.78;2.10;;;16.20;55.40;;;;;;5033620;28;20556;-51
2022/06/16 10:35:55;;;;;;;3.45;2.20;;;16.20;55.40;;;;;;5033989;28;20253;-51
2022/06/16 10:38:37;;;;;;;4.28;2.10;;;16.20;55.40;;;;;;5014499;28;20215;-51
2022/06/16 10:41:09;;;;;;;4.82;2.08;;;16.20;55.40;;;;;;5012964;28;20193;-56
2022/06/16 10:43:42;;;;;;;3.72;1.95;;;16.20;55.40;;;;;;5013884;28;20207;-53
2022/06/16 10:46:17;;;;;;;3.00;1.95;;;16.20;55.40;;;;;;5016520;28;20185;-52
2022/06/16 10:48:52;;;;;;;3.25;2.08;;;16.20;55.40;;;;;;5026962;28;20231;-53
2022/06/16 10:51:27;;;;;;;3.20;1.90;;;16.20;55.40;;;;;;5033296;28;20199;-52
2022/06/16 10:54:14;;;;;;;2.85;1.80;;;16.20;55.40;;;;;;5032721;28;20222;-52
2022/06/16 10:56:45;;;;;;;3.38;1.80;;;16.20;55.40;;;;;;5019424;28;20204;-51
2022/06/16 10:59:22;;;;;;;5.10;2.50;;;16.20;55.40;;;;;;5013417;28;20598;-52
2022/06/16 11:01:56;;;;;;;3.78;1.80;;;16.20;55.40;;;;;;5013784;28;20192;-52
2022/06/16 11:04:35;;;;;;;4.55;2.20;;;16.20;55.40;;;;;;5013449;28;20299;-51
2022/06/16 11:07:12;;;;;;;3.72;2.20;;;16.20;55.40;;;;;;5013174;28;20665;-54
2022/06/16 11:09:43;;;;;;;2.65;2.00;;;16.20;55.40;;;;;;5012870;28;20248;-52
2022/06/16 11:12:19;;;;;;;2.80;2.00;;;16.10;55.30;;;;;;5012891;28;20228;-52
2022/06/16 11:14:54;;;;;;;3.10;2.20;;;16.20;55.40;;;;;;5013126;28;20203;-51
2022/06/16 11:17:29;;;;;;;3.28;2.20;;;16.20;55.40;;;;;;4994244;28;20208;-52
2022/06/16 11:20:04;;;;;;;2.85;1.98;;;16.20;55.40;;;;;;5014146;28;20778;-54
2022/06/16 11:22:40;;;;;;;3.25;1.92;;;16.20;55.40;;;;;;5014081;28;20283;-51
2022/06/16 11:25:21;;;;;;;2.85;1.73;;;16.20;55.30;;;;;;5012551;28;20203;-53
2022/06/16 11:27:57;;;;;;;3.58;2.00;;;16.10;55.20;;;;;;5011770;28;20375;-54
2022/06/16 11:30:37;;;;;;;4.13;2.00;;;16.20;55.30;;;;;;5012288;28;20205;-52
2022/06/16 11:34:06;;;;;;;3.47;2.10;;;16.10;55.20;;;;;;5011388;28;20232;-52
2022/06/16 11:36:17;;;;;;;3.05;2.17;;;16.10;55.20;;;;;;5011397;28;20224;-52
2022/06/16 11:38:58;;;;;;;2.85;1.92;;;16.10;55.10;;;;;;5011803;28;20652;-51
2022/06/16 11:41:32;;;;;;;3.78;1.77;;;16.10;55.10;;;;;;5010801;28;20197;-51
2022/06/16 11:44:20;;;;;;;3.38;2.15;;;16.10;55.10;;;;;;5012094;28;20811;-53
2022/06/16 11:46:57;;;;;;;3.83;2.10;;;16.10;55.20;;;;;;5011933;28;20201;-51
2022/06/16 11:49:36;;;;;;;3.45;1.90;;;16.10;55.10;;;;;;5011565;28;20251;-52
2022/06/16 11:52:17;;;;;;;2.60;1.85;;;16.10;55.10;;;;;;5011830;28;20197;-51
2022/06/16 11:54:59;;;;;;;3.38;1.95;;;16.10;55.10;;;;;;5011788;28;20848;-50
2022/06/16 11:57:36;;;;;;;3.80;2.00;;;16.00;55.10;;;;;;5011678;28;20222;-51
2022/06/16 12:00:28;;;;;;;3.65;2.20;;;16.10;55.10;;;;;;5011732;28;20204;-51
2022/06/16 12:03:23;;;;;;;3.35;2.05;;;16.10;55.20;;;;;;5011673;28;20851;-52
2022/06/16 12:06:11;;;;;;;2.92;1.90;;;16.10;55.10;;;;;;5011668;28;20215;-52
2022/06/16 12:09:05;;;;;;;2.83;1.85;;;16.00;55.10;;;;;;4992205;28;20253;-50
2022/06/16 12:11:45;;;;;;;2.88;2.10;;;16.10;55.10;;;;;;4991367;28;20201;-52
2022/06/16 12:14:21;;;;;;;3.67;2.25;;;16.00;55.00;;;;;;5005407;28;20220;-50
2022/06/16 12:16:57;;;;;;;3.63;1.98;;;16.00;55.00;;;;;;5011004;28;20196;-53
2022/06/16 12:19:38;;;;;;;3.25;2.03;;;16.00;55.00;;;;;;5010153;28;20636;-52
2022/06/16 12:22:17;;;;;;;4.90;2.10;;;16.00;55.00;;;;;;5010774;28;20193;-50
2022/06/16 12:24:53;;;;;;;3.85;2.28;;;16.00;55.00;;;;;;5011198;28;20279;-52
2022/06/16 12:27:28;;;;;;;2.47;1.77;;;16.00;55.00;;;;;;5011210;28;20291;-53
2022/06/16 12:30:03;;;;;;;3.50;2.13;;;16.00;55.00;;;;;;5011254;28;20323;-53
2022/06/16 12:32:42;;;;;;;4.07;2.13;;;16.00;55.00;;;;;;5010960;28;20227;-50
2022/06/16 12:35:20;;;;;;;3.58;2.28;;;15.90;54.90;;;;;;5012914;28;20200;-50
2022/06/16 12:37:53;;;;;;;2.22;1.77;;;16.00;55.00;;;;;;5010765;28;20224;-51
2022/06/16 12:40:30;;;;;;;4.00;1.88;;;15.90;55.00;;;;;;5011031;28;20197;-54
2022/06/16 12:43:20;;;;;;;5.35;2.28;;;15.90;55.00;;;;;;5011053;28;20197;-52
2022/06/16 12:45:55;;;;;;;2.70;1.98;;;15.90;55.00;;;;;;5011196;28;20208;-53
2022/06/16 12:48:29;;;;;;;3.05;1.88;;;15.90;55.00;;;;;;5010441;28;20212;-53
2022/06/16 12:51:01;;;;;;;3.00;1.90;;;15.90;55.00;;;;;;5010921;28;20672;-51
2022/06/16 12:53:35;;;;;;;2.55;2.00;;;15.90;54.90;;;;;;5010306;28;20595;-53
2022/06/16 12:56:09;;;;;;;3.38;2.00;;;15.90;54.90;;;;;;5013143;28;20192;-53
2022/06/16 12:58:49;;;;;;;3.05;1.80;;;15.90;54.90;;;;;;5010337;28;20220;-51
2022/06/16 13:01:20;;;;;;;2.70;1.80;;;15.90;54.90;;;;;;5010506;28;20740;-53
2022/06/16 13:04:01;;;;;;;2.90;1.90;;;15.90;54.90;;;;;;5010526;28;20204;-50
2022/06/16 13:06:33;;;;;;;2.78;2.03;;;15.90;54.90;;;;;;5010290;28;20204;-51
2022/06/16 13:09:06;;;;;;;3.75;2.15;;;15.90;54.90;;;;;;5010161;28;20223;-50
2022/06/16 13:11:46;;;;;;;3.60;2.00;;;15.90;54.90;;;;;;5010607;28;20201;-52
2022/06/16 13:14:28;;;;;;;3.25;1.75;;;15.90;54.90;;;;;;5010654;28;20692;-52
2022/06/16 13:17:02;;;;;;;4.35;2.22;;;15.90;54.90;;;;;;5010671;28;20271;-50
2022/06/16 13:19:37;;;;;;;3.45;1.80;;;15.80;54.80;;;;;;5009951;28;20222;-50
2022/06/16 13:22:20;;;;;;;3.65;1.70;;;15.80;54.80;;;;;;5010394;28;20203;-51
2022/06/16 13:24:57;;;;;;;3.80;2.00;;;15.80;54.90;;;;;;5010151;28;20211;-51
2022/06/16 13:27:30;;;;;;;2.53;1.70;;;15.80;54.90;;;;;;5009785;28;20212;-50
2022/06/16 13:30:23;;;;;;;1.95;1.55;;;15.80;55.00;;;;;;5009886;28;20200;-50
2022/06/16 13:33:23;;;;;;;3.80;1.65;;;15.80;55.00;;;;;;5009580;28;20232;-50
2022/06/16 13:36:11;;;;;;;3.38;1.60;;;15.80;54.90;;;;;;5009634;28;20204;-52
2022/06/16 13:38:49;;;;;;;2.42;1.75;;;15.80;54.90;;;;;;4990230;28;20231;-50
2022/06/16 13:41:37;;;;;;;2.25;1.60;;;15.80;54.90;;;;;;4990324;28;20201;-51
2022/06/16 13:44:14;;;;;;;3.20;2.00;;;15.80;54.90;;;;;;4983601;28;20205;-50
2022/06/16 13:47:08;;;;;;;3.60;1.98;;;15.80;54.90;;;;;;4990696;28;20204;-51
2022/06/16 13:49:55;;;;;;;3.90;2.00;;;15.70;54.80;;;;;;4998125;28;20393;-54
2022/06/16 13:52:30;;;;;;;2.58;1.63;;;15.70;54.80;;;;;;5009983;28;20192;-51
2022/06/16 13:55:24;;;;;;;4.38;1.73;;;15.70;54.90;;;;;;5009789;28;20200;-53
2022/06/16 13:58:17;;;;;;;5.72;1.80;;;15.70;54.80;;;;;;5009392;28;20213;-50
2022/06/16 14:01:02;;;;;;;2.58;1.70;;;15.70;54.80;;;;;;5009994;28;20276;-51